Time;durP1;ratioP1;P1;durP2;ratioP2;P2;SDS_P1;SDS_P2;PMS_P1;PMS_P2;Temp;Humidity;BMP_temperature;BMP_pressure;BME280_temperature;BME280_humidity;BME280_pressure;Samples;Min_cycle;Max_cycle;Signal;HPM_P1;HPM_P2
2022/06/29 00:02:05;;;;;;;0.82;0.10;;;17.40;99.90;;;;;;5015006;28;20034;-76
2022/06/29 00:04:30;;;;;;;1.00;0.13;;;17.40;99.90;;;;;;4998849;28;20043;-76
2022/06/29 00:06:56;;;;;;;0.90;0.20;;;17.40;99.90;;;;;;4995974;28;20653;-76
2022/06/29 00:09:22;;;;;;;0.60;0.10;;;17.30;99.90;;;;;;5032877;28;20040;-76
2022/06/29 00:11:48;;;;;;;1.30;0.10;;;17.20;99.90;;;;;;5015099;28;20032;-76
2022/06/29 00:14:14;;;;;;;0.57;0.20;;;17.30;99.90;;;;;;4996943;28;20441;-76
2022/06/29 00:16:40;;;;;;;0.70;0.20;;;17.20;99.90;;;;;;5032156;28;20676;-76
2022/06/29 00:19:05;;;;;;;0.40;0.10;;;17.20;99.90;;;;;;5031852;28;20053;-76
2022/06/29 00:21:33;;;;;;;0.70;0.20;;;17.10;99.90;;;;;;5014894;28;20036;-76
2022/06/29 00:23:59;;;;;;;1.40;0.20;;;17.10;99.90;;;;;;5014497;28;20029;-76
2022/06/29 00:26:28;;;;;;;0.90;0.15;;;17.00;99.90;;;;;;5019997;28;20120;-76
2022/06/29 00:28:54;;;;;;;1.40;0.20;;;17.00;99.90;;;;;;5015445;28;20032;-74
2022/06/29 00:31:20;;;;;;;0.60;0.10;;;16.90;99.90;;;;;;5030728;28;20428;-76
2022/06/29 00:33:45;;;;;;;1.35;0.15;;;16.90;99.90;;;;;;5013002;28;20033;-76
2022/06/29 00:36:12;;;;;;;1.77;0.40;;;16.90;99.90;;;;;;5018809;28;20767;-75
2022/06/29 00:38:37;;;;;;;0.30;0.10;;;16.90;99.90;;;;;;5031799;28;20037;-75
2022/06/29 00:41:03;;;;;;;0.40;0.10;;;16.80;99.90;;;;;;5029883;28;20047;-76
2022/06/29 00:43:29;;;;;;;1.58;0.13;;;16.80;99.90;;;;;;4996622;28;20037;-76
2022/06/29 00:45:54;;;;;;;0.38;0.13;;;16.80;99.90;;;;;;5030537;28;20110;-76
2022/06/29 00:48:20;;;;;;;1.05;0.20;;;16.80;99.90;;;;;;5013950;28;20025;-75
2022/06/29 00:50:47;;;;;;;0.70;0.20;;;16.70;99.90;;;;;;4995927;28;20025;-76
2022/06/29 00:53:18;;;;;;;0.60;0.20;;;16.70;99.90;;;;;;5012412;28;20090;-76
2022/06/29 00:55:47;;;;;;;0.60;0.20;;;16.70;99.90;;;;;;5031704;28;20654;-76
2022/06/29 00:58:17;;;;;;;0.47;0.20;;;16.70;99.90;;;;;;5012010;28;20021;-76
2022/06/29 01:00:44;;;;;;;0.90;0.20;;;16.50;99.90;;;;;;5014644;28;20079;-76
2022/06/29 01:03:10;;;;;;;0.90;0.20;;;16.30;99.90;;;;;;5013849;28;20044;-75
2022/06/29 01:05:36;;;;;;;0.50;0.20;;;16.30;99.90;;;;;;4996439;28;20080;-76
2022/06/29 01:08:02;;;;;;;1.55;0.20;;;16.10;99.90;;;;;;5011759;28;20049;-76
2022/06/29 01:10:28;;;;;;;0.57;0.20;;;16.10;99.90;;;;;;5030418;28;20109;-76
2022/06/29 01:12:55;;;;;;;1.00;0.20;;;16.00;99.90;;;;;;5015932;28;20048;-75
2022/06/29 01:15:21;;;;;;;0.80;0.20;;;16.00;99.90;;;;;;5018446;28;20121;-75
2022/06/29 01:17:47;;;;;;;0.68;0.30;;;15.90;99.90;;;;;;5030025;28;20036;-76
2022/06/29 01:20:13;;;;;;;1.00;0.20;;;15.90;99.90;;;;;;5012126;28;20036;-75
2022/06/29 01:22:39;;;;;;;1.92;0.20;;;15.70;99.90;;;;;;5030663;28;20048;-76
2022/06/29 01:25:06;;;;;;;0.50;0.20;;;15.70;99.90;;;;;;4996499;28;20048;-76
2022/06/29 01:27:32;;;;;;;0.88;0.20;;;15.70;99.90;;;;;;5015814;28;20052;-76
2022/06/29 01:29:58;;;;;;;1.25;0.20;;;15.60;99.90;;;;;;5018410;28;20041;-76
2022/06/29 01:32:24;;;;;;;0.50;0.20;;;15.50;99.90;;;;;;5019562;28;20072;-76
2022/06/29 01:34:50;;;;;;;0.98;0.30;;;15.40;99.90;;;;;;5028912;28;20549;-76
2022/06/29 01:37:16;;;;;;;0.50;0.20;;;15.20;99.90;;;;;;5013752;28;20044;-76
2022/06/29 01:39:42;;;;;;;1.48;0.20;;;15.20;99.90;;;;;;5011667;28;20076;-76
2022/06/29 01:42:08;;;;;;;0.73;0.28;;;15.30;99.90;;;;;;5012192;28;20136;-75
2022/06/29 01:44:35;;;;;;;0.45;0.20;;;15.30;99.90;;;;;;4994262;28;20038;-76
2022/06/29 01:47:02;;;;;;;1.30;0.30;;;15.20;99.90;;;;;;5029885;28;20108;-77
2022/06/29 01:49:28;;;;;;;0.82;0.20;;;15.20;99.90;;;;;;5031102;28;20382;-76
2022/06/29 01:51:54;;;;;;;0.75;0.30;;;15.30;99.90;;;;;;5028498;28;20076;-75
2022/06/29 01:54:22;;;;;;;2.42;0.30;;;15.40;99.90;;;;;;5030472;28;20038;-75
2022/06/29 01:56:48;;;;;;;0.60;0.20;;;15.50;99.90;;;;;;4995060;28;20111;-76
2022/06/29 01:59:14;;;;;;;0.55;0.20;;;15.50;99.90;;;;;;5030048;28;20068;-76
2022/06/29 02:01:40;;;;;;;0.52;0.20;;;15.60;99.90;;;;;;5012047;28;22897;-75
2022/06/29 02:04:06;;;;;;;1.60;0.20;;;15.60;99.90;;;;;;5032858;28;20079;-75
2022/06/29 02:06:32;;;;;;;0.60;0.20;;;15.60;99.90;;;;;;5017356;28;20057;-75
2022/06/29 02:08:58;;;;;;;0.47;0.20;;;15.60;99.90;;;;;;5017579;28;20028;-76
2022/06/29 02:11:24;;;;;;;1.60;0.30;;;15.60;99.90;;;;;;5017502;28;20029;-75
2022/06/29 02:13:51;;;;;;;1.30;0.30;;;15.60;99.90;;;;;;5021887;28;20029;-76
2022/06/29 02:16:17;;;;;;;0.50;0.20;;;15.60;99.90;;;;;;5015706;28;20079;-76
2022/06/29 02:18:43;;;;;;;0.90;0.20;;;15.60;99.90;;;;;;5035151;28;20140;-75
2022/06/29 02:21:10;;;;;;;0.57;0.30;;;15.60;99.90;;;;;;5033756;28;20025;-76
2022/06/29 02:23:36;;;;;;;1.00;0.30;;;15.60;99.90;;;;;;5016384;28;20020;-75
2022/06/29 02:26:01;;;;;;;0.80;0.30;;;15.60;99.90;;;;;;5034054;28;20047;-76
2022/06/29 02:28:27;;;;;;;1.70;0.30;;;15.60;99.90;;;;;;5034455;28;20120;-75
2022/06/29 02:36:22;;;;;;;1.17;0.30;;;15.40;99.90;;;;;;5010948;28;20060;-75
2022/06/29 02:38:48;;;;;;;1.13;0.30;;;15.30;99.90;;;;;;4999540;28;20045;-76
2022/06/29 02:41:13;;;;;;;0.98;0.30;;;15.20;99.90;;;;;;5032487;28;20033;-76
2022/06/29 02:43:39;;;;;;;0.40;0.20;;;15.20;99.90;;;;;;5033788;28;20091;-76
2022/06/29 02:46:05;;;;;;;0.70;0.30;;;15.10;99.90;;;;;;5020089;28;20159;-75
2022/06/29 02:48:32;;;;;;;0.60;0.38;;;15.10;99.90;;;;;;5033096;28;20131;-75
2022/06/29 02:50:59;;;;;;;1.83;0.40;;;15.10;99.90;;;;;;5003898;28;20041;-76
2022/06/29 02:53:25;;;;;;;0.70;0.40;;;15.00;99.90;;;;;;5034274;28;20033;-75
2022/06/29 02:55:51;;;;;;;1.95;0.30;;;15.00;99.90;;;;;;5032436;28;20068;-76
2022/06/29 02:58:16;;;;;;;1.23;0.40;;;15.00;99.90;;;;;;5017505;28;20057;-75
2022/06/29 03:00:42;;;;;;;1.35;0.40;;;14.90;99.90;;;;;;5020120;28;20095;-75
2022/06/29 03:03:08;;;;;;;1.50;0.50;;;14.90;99.90;;;;;;5033585;28;20036;-75
2022/06/29 03:05:33;;;;;;;1.55;0.40;;;14.80;99.90;;;;;;4998723;28;20052;-76
2022/06/29 03:07:59;;;;;;;0.70;0.32;;;14.80;99.90;;;;;;5015600;28;20036;-76
2022/06/29 03:10:25;;;;;;;1.00;0.40;;;14.80;99.90;;;;;;5015818;28;20025;-75
2022/06/29 03:12:50;;;;;;;1.10;0.30;;;14.70;99.90;;;;;;5017001;28;20445;-75
2022/06/29 03:15:16;;;;;;;1.40;0.40;;;14.70;99.90;;;;;;5033036;28;20466;-75
2022/06/29 03:17:42;;;;;;;1.20;0.40;;;14.70;99.90;;;;;;5032849;28;20099;-76
2022/06/29 03:20:08;;;;;;;1.27;0.40;;;14.60;99.90;;;;;;5033129;28;20052;-76
2022/06/29 03:22:34;;;;;;;2.13;0.40;;;14.60;99.90;;;;;;5026965;28;20033;-76
2022/06/29 03:25:00;;;;;;;1.02;0.40;;;14.70;99.90;;;;;;5032281;28;20090;-75
2022/06/29 03:27:26;;;;;;;1.58;0.50;;;14.60;99.90;;;;;;5018369;28;20029;-75
2022/06/29 03:29:52;;;;;;;0.75;0.40;;;14.60;99.90;;;;;;5033720;28;20484;-75
2022/06/29 03:32:19;;;;;;;0.80;0.40;;;14.50;99.90;;;;;;5032556;28;20547;-76
2022/06/29 03:34:45;;;;;;;1.20;0.40;;;14.50;99.90;;;;;;5014780;28;20083;-77
2022/06/29 03:37:11;;;;;;;0.80;0.40;;;14.50;99.90;;;;;;5019134;28;20726;-76
2022/06/29 03:39:36;;;;;;;2.35;0.40;;;14.50;99.90;;;;;;5032996;28;20052;-76
2022/06/29 03:42:02;;;;;;;2.65;0.50;;;14.50;99.90;;;;;;5013987;28;20116;-77
2022/06/29 03:44:28;;;;;;;1.00;0.30;;;14.50;99.90;;;;;;5014188;28;20032;-77
2022/06/29 03:46:54;;;;;;;1.23;0.45;;;14.50;99.90;;;;;;5015904;28;20465;-76
2022/06/29 03:49:20;;;;;;;2.03;0.30;;;14.50;99.90;;;;;;5018466;28;20115;-75
2022/06/29 03:51:45;;;;;;;1.67;0.40;;;14.50;99.90;;;;;;5031308;28;20040;-77
2022/06/29 03:54:11;;;;;;;1.13;0.40;;;14.60;99.90;;;;;;5000089;28;20025;-76
2022/06/29 03:56:37;;;;;;;1.00;0.40;;;14.60;99.90;;;;;;5030765;28;20730;-76
2022/06/29 03:59:02;;;;;;;1.98;0.47;;;14.60;99.90;;;;;;4998537;28;20137;-76
2022/06/29 04:01:28;;;;;;;1.20;0.50;;;14.60;99.90;;;;;;4995389;28;20037;-76
2022/06/29 04:03:54;;;;;;;0.90;0.40;;;14.60;99.90;;;;;;5013458;28;20056;-75
2022/06/29 04:06:20;;;;;;;1.35;0.50;;;14.50;99.90;;;;;;5017316;28;20048;-77
2022/06/29 04:08:45;;;;;;;1.25;0.40;;;14.20;99.90;;;;;;5014116;28;20057;-76
2022/06/29 04:11:54;;;;;;;1.85;0.50;;;14.10;99.90;;;;;;5014061;28;20036;-75
2022/06/29 04:14:00;;;;;;;0.98;0.45;;;14.10;99.90;;;;;;5025493;28;20468;-76
2022/06/29 04:16:25;;;;;;;1.15;0.43;;;14.30;99.90;;;;;;5011872;28;20032;-76
2022/06/29 04:18:51;;;;;;;1.58;0.60;;;14.40;99.90;;;;;;5028993;28;20397;-76
2022/06/29 04:21:17;;;;;;;1.02;0.40;;;14.40;99.90;;;;;;4997471;28;20453;-76
2022/06/29 04:23:42;;;;;;;0.90;0.50;;;14.40;99.90;;;;;;5032083;28;20032;-76
2022/06/29 04:26:08;;;;;;;0.70;0.40;;;14.50;99.90;;;;;;5031683;28;20074;-76
2022/06/29 04:28:34;;;;;;;1.92;0.60;;;14.60;99.90;;;;;;4996418;28;20060;-77
2022/06/29 04:31:01;;;;;;;0.85;0.40;;;14.80;99.90;;;;;;5008758;28;20028;-76
2022/06/29 04:33:26;;;;;;;1.02;0.50;;;14.90;99.90;;;;;;4996054;28;20060;-75
2022/06/29 04:35:52;;;;;;;2.38;0.60;;;15.00;99.90;;;;;;5017704;28;20108;-76
2022/06/29 04:38:18;;;;;;;1.42;0.50;;;15.10;99.90;;;;;;5033094;28;20120;-76
2022/06/29 04:40:43;;;;;;;1.50;0.50;;;15.10;99.90;;;;;;5031268;28;20114;-76
2022/06/29 04:43:09;;;;;;;1.23;0.43;;;15.20;99.90;;;;;;5015063;28;20028;-77
2022/06/29 04:48:19;;;;;;;1.23;0.40;;;15.50;99.90;;;;;;5023736;28;20501;-76
2022/06/29 04:50:45;;;;;;;1.80;0.50;;;15.60;99.90;;;;;;5019241;28;20036;-76
2022/06/29 04:53:10;;;;;;;1.00;0.50;;;15.90;99.90;;;;;;5031581;28;20028;-76
2022/06/29 04:55:36;;;;;;;1.60;0.50;;;16.00;99.90;;;;;;5031401;28;20109;-77
2022/06/29 04:58:02;;;;;;;0.85;0.45;;;16.10;99.90;;;;;;4995002;28;20033;-77
2022/06/29 05:00:27;;;;;;;1.30;0.50;;;16.30;99.90;;;;;;5012692;28;20040;-76
2022/06/29 05:02:53;;;;;;;1.33;0.60;;;16.30;99.90;;;;;;5030426;28;20017;-76
2022/06/29 05:05:19;;;;;;;1.85;0.80;;;16.40;99.90;;;;;;5015031;28;20048;-76
2022/06/29 05:07:45;;;;;;;1.17;0.52;;;16.60;99.90;;;;;;5026615;28;20746;-76
2022/06/29 05:10:11;;;;;;;2.45;0.50;;;16.70;99.90;;;;;;5017617;28;20091;-76
2022/06/29 05:12:38;;;;;;;1.45;0.60;;;16.90;99.90;;;;;;5011675;28;20029;-76
2022/06/29 05:15:06;;;;;;;0.90;0.50;;;17.00;99.90;;;;;;5030783;28;20058;-76
2022/06/29 05:17:36;;;;;;;1.33;0.65;;;17.10;99.90;;;;;;5029234;28;20044;-76
2022/06/29 05:20:04;;;;;;;1.25;0.60;;;17.30;99.90;;;;;;5031406;28;20049;-77
2022/06/29 05:22:30;;;;;;;1.55;0.63;;;17.30;99.90;;;;;;5027668;28;20040;-77
2022/06/29 05:24:55;;;;;;;1.58;0.60;;;17.50;99.90;;;;;;5030541;28;20029;-76
2022/06/29 05:27:21;;;;;;;1.65;0.50;;;17.70;99.90;;;;;;5010596;28;20104;-76
2022/06/29 05:29:47;;;;;;;1.10;0.50;;;17.90;99.90;;;;;;5011832;28;20036;-76
2022/06/29 05:32:13;;;;;;;1.45;0.55;;;18.00;99.90;;;;;;5031348;28;20036;-76
2022/06/29 05:34:38;;;;;;;0.75;0.50;;;18.10;99.90;;;;;;5013578;28;20037;-76
2022/06/29 05:37:04;;;;;;;2.42;0.60;;;18.30;99.90;;;;;;5010630;28;20025;-75
2022/06/29 05:39:29;;;;;;;1.42;0.52;;;18.50;99.90;;;;;;5031055;28;20397;-76
2022/06/29 05:41:55;;;;;;;1.50;0.50;;;18.60;99.90;;;;;;5011616;28;20075;-76
2022/06/29 05:44:21;;;;;;;2.70;0.65;;;18.60;99.90;;;;;;5028920;28;20073;-76
2022/06/29 05:46:46;;;;;;;1.23;0.50;;;18.80;99.90;;;;;;5029475;28;20330;-76
2022/06/29 05:49:12;;;;;;;1.65;0.40;;;19.00;99.90;;;;;;5012327;28;20029;-77
2022/06/29 05:51:40;;;;;;;1.75;0.50;;;19.20;99.90;;;;;;5031609;28;20178;-77
2022/06/29 05:54:07;;;;;;;1.30;0.50;;;19.30;99.90;;;;;;5031320;28;20040;-77
2022/06/29 05:56:33;;;;;;;1.05;0.40;;;19.50;99.90;;;;;;5031046;28;20040;-78
2022/06/29 05:58:59;;;;;;;1.20;0.40;;;19.70;99.90;;;;;;5030064;28;20041;-77
2022/06/29 06:01:24;;;;;;;1.05;0.47;;;19.70;99.90;;;;;;5018993;28;20539;-77
2022/06/29 06:03:50;;;;;;;0.95;0.40;;;19.70;99.90;;;;;;5009314;28;20033;-76
2022/06/29 06:06:16;;;;;;;0.90;0.40;;;20.00;99.90;;;;;;5025578;28;20734;-77
2022/06/29 06:08:41;;;;;;;1.80;0.40;;;20.20;99.90;;;;;;4994233;28;20090;-77
2022/06/29 06:11:07;;;;;;;1.50;0.30;;;20.40;99.90;;;;;;5011359;28;20506;-77
2022/06/29 06:13:33;;;;;;;1.90;0.30;;;20.60;99.90;;;;;;5029721;28;20442;-76
2022/06/29 06:15:59;;;;;;;0.65;0.30;;;20.70;99.90;;;;;;5014562;28;20038;-77
2022/06/29 06:18:25;;;;;;;1.60;0.30;;;20.90;99.90;;;;;;5013721;28;20042;-76
2022/06/29 06:20:50;;;;;;;0.70;0.30;;;20.90;99.90;;;;;;4994897;28;20037;-77
2022/06/29 06:23:16;;;;;;;0.85;0.30;;;20.90;99.90;;;;;;5029984;28;20029;-77
2022/06/29 06:25:42;;;;;;;0.82;0.30;;;21.00;99.90;;;;;;5012191;28;20021;-76
2022/06/29 06:28:08;;;;;;;1.60;0.30;;;20.90;99.90;;;;;;5010650;28;20034;-77
2022/06/29 06:30:34;;;;;;;1.35;0.30;;;20.70;99.90;;;;;;5027056;28;20029;-77
2022/06/29 06:32:59;;;;;;;2.33;0.30;;;20.50;99.90;;;;;;5027455;28;20600;-77
2022/06/29 06:35:25;;;;;;;1.02;0.20;;;20.30;99.90;;;;;;4992445;28;20044;-77
2022/06/29 06:37:52;;;;;;;1.83;0.22;;;20.10;99.90;;;;;;5025183;28;20510;-76
2022/06/29 06:43:02;;;;;;;0.50;0.30;;;20.00;99.90;;;;;;5026371;28;20104;-77
2022/06/29 06:45:29;;;;;;;1.08;0.30;;;20.10;99.90;;;;;;5026585;28;20051;-77
2022/06/29 06:47:55;;;;;;;1.98;0.30;;;20.10;99.90;;;;;;5027689;28;20013;-77
2022/06/29 06:50:20;;;;;;;0.73;0.20;;;20.10;99.90;;;;;;4994188;28;20449;-78
2022/06/29 06:52:46;;;;;;;1.05;0.30;;;20.20;99.90;;;;;;4998012;28;20033;-78
2022/06/29 06:55:13;;;;;;;0.95;0.35;;;20.30;99.90;;;;;;5015706;28;20164;-77
2022/06/29 06:57:39;;;;;;;1.85;0.25;;;20.40;99.90;;;;;;5015349;28;20021;-77
2022/06/29 07:00:05;;;;;;;1.08;0.30;;;20.50;99.90;;;;;;5031498;28;20127;-77
2022/06/29 07:02:31;;;;;;;3.83;0.40;;;20.50;99.90;;;;;;5021611;28;20030;-78
2022/06/29 07:04:57;;;;;;;0.80;0.30;;;20.60;99.90;;;;;;5031258;28;20048;-77
2022/06/29 07:07:23;;;;;;;1.00;0.30;;;20.60;99.90;;;;;;5015939;28;20057;-77
2022/06/29 07:09:48;;;;;;;1.20;0.30;;;20.80;99.90;;;;;;5032172;28;20090;-77
2022/06/29 07:12:14;;;;;;;2.15;0.30;;;20.90;99.90;;;;;;5017897;28;20035;-78
2022/06/29 07:14:40;;;;;;;1.10;0.22;;;21.00;99.90;;;;;;5012453;28;20052;-78
2022/06/29 07:17:05;;;;;;;0.93;0.20;;;21.20;99.90;;;;;;5030250;28;20021;-78
2022/06/29 07:19:31;;;;;;;0.73;0.20;;;21.30;99.90;;;;;;5011235;28;20508;-77
2022/06/29 07:21:57;;;;;;;1.05;0.30;;;21.40;99.90;;;;;;5029137;28;20499;-78
2022/06/29 07:24:23;;;;;;;1.48;0.22;;;21.60;99.90;;;;;;4997124;28;22544;-77
2022/06/29 07:26:48;;;;;;;0.93;0.30;;;21.70;99.90;;;;;;5014421;28;20040;-77
2022/06/29 07:29:14;;;;;;;1.50;0.22;;;21.70;99.90;;;;;;5031416;28;20037;-77
2022/06/29 07:31:40;;;;;;;1.35;0.30;;;22.20;99.90;;;;;;5012167;28;20030;-77
2022/06/29 07:34:05;;;;;;;1.15;0.20;;;22.50;99.90;;;;;;5010582;28;20475;-78
2022/06/29 07:36:31;;;;;;;1.20;0.28;;;22.80;99.90;;;;;;5029231;28;20036;-78
2022/06/29 07:38:57;;;;;;;1.30;0.30;;;23.00;99.90;;;;;;4994931;28;20037;-78
2022/06/29 07:41:23;;;;;;;0.63;0.20;;;23.30;99.90;;;;;;5010589;28;20072;-78
2022/06/29 07:43:49;;;;;;;1.27;0.30;;;23.60;99.90;;;;;;5010601;28;20040;-78
2022/06/29 07:46:15;;;;;;;0.80;0.30;;;23.80;99.90;;;;;;5011795;28;20036;-78
2022/06/29 07:48:40;;;;;;;1.48;0.40;;;23.70;99.90;;;;;;5011237;28;22638;-78
2022/06/29 07:51:06;;;;;;;0.80;0.30;;;23.60;99.90;;;;;;5017152;28;20040;-79
2022/06/29 07:53:32;;;;;;;0.70;0.30;;;24.10;99.90;;;;;;4999968;28;20131;-78
2022/06/29 07:55:57;;;;;;;1.30;0.30;;;24.30;99.90;;;;;;5017865;28;20026;-78
2022/06/29 07:58:23;;;;;;;1.77;0.30;;;24.50;99.90;;;;;;5030317;28;20033;-78
2022/06/29 08:00:49;;;;;;;1.50;0.30;;;24.70;99.90;;;;;;5000279;28;20064;-78
2022/06/29 08:03:15;;;;;;;1.45;0.30;;;24.70;99.90;;;;;;5033095;28;20465;-78
2022/06/29 08:05:41;;;;;;;2.65;0.30;;;24.90;99.90;;;;;;5030571;28;20169;-78
2022/06/29 08:08:07;;;;;;;0.68;0.30;;;25.00;99.90;;;;;;4998149;28;20069;-78
2022/06/29 08:10:34;;;;;;;1.25;0.30;;;25.30;99.90;;;;;;5032594;28;20153;-78
2022/06/29 08:13:00;;;;;;;1.02;0.30;;;25.50;99.90;;;;;;4997441;28;20056;-81
2022/06/29 08:15:27;;;;;;;0.65;0.20;;;25.70;99.90;;;;;;5030310;28;20043;-78
2022/06/29 08:17:53;;;;;;;1.00;0.60;;;25.70;99.90;;;;;;5028208;28;20026;-78
2022/06/29 08:20:19;;;;;;;0.68;0.20;;;25.40;99.90;;;;;;5029554;28;20052;-78
2022/06/29 08:22:45;;;;;;;0.70;0.20;;;25.90;99.90;;;;;;5014344;28;20484;-79
2022/06/29 08:25:11;;;;;;;1.48;0.25;;;26.40;99.90;;;;;;5026659;28;20114;-78
2022/06/29 08:27:38;;;;;;;0.73;0.20;;;26.60;99.90;;;;;;4994940;28;20054;-78
2022/06/29 08:30:05;;;;;;;0.73;0.20;;;26.40;99.90;;;;;;5026814;28;20076;-78
2022/06/29 08:32:31;;;;;;;0.63;0.20;;;26.30;99.90;;;;;;4994645;28;20533;-78
2022/06/29 08:34:59;;;;;;;0.63;0.20;;;26.10;99.90;;;;;;5010162;28;20033;-78
2022/06/29 08:37:26;;;;;;;0.45;0.10;;;26.40;99.90;;;;;;5028051;28;20033;-79
2022/06/29 08:39:52;;;;;;;0.50;0.15;;;26.50;99.90;;;;;;5013232;28;20589;-79
2022/06/29 08:42:22;;;;;;;0.75;0.20;;;26.60;99.90;;;;;;5015528;28;20040;-78
2022/06/29 08:44:51;;;;;;;0.63;0.20;;;26.80;99.90;;;;;;5027980;28;20028;-79
2022/06/29 08:47:17;;;;;;;1.30;0.10;;;26.50;99.90;;;;;;5010326;28;20106;-79
2022/06/29 08:49:46;;;;;;;1.20;0.20;;;26.50;99.90;;;;;;5027808;28;20028;-79
2022/06/29 08:52:12;;;;;;;0.68;0.17;;;27.00;99.90;;;;;;5029409;28;20025;-80
2022/06/29 08:54:43;;;;;;;0.50;0.10;;;27.20;99.90;;;;;;5026862;28;20083;-76
2022/06/29 08:57:08;;;;;;;0.90;0.20;;;27.40;99.90;;;;;;5028069;28;20161;-76
2022/06/29 08:59:34;;;;;;;1.30;0.10;;;27.70;99.90;;;;;;5015587;28;20052;-79
2022/06/29 09:02:01;;;;;;;1.70;0.17;;;27.70;99.90;;;;;;5029016;28;20029;-78
2022/06/29 09:04:27;;;;;;;0.63;0.20;;;27.70;99.90;;;;;;5011666;28;20071;-80
2022/06/29 09:06:55;;;;;;;0.68;0.13;;;27.60;99.90;;;;;;5012264;28;22656;-79
2022/06/29 09:09:22;;;;;;;1.52;0.10;;;27.50;99.90;;;;;;5030405;28;20020;-79
2022/06/29 09:11:51;;;;;;;0.80;0.10;;;27.80;99.90;;;;;;5028711;28;20034;-79
2022/06/29 09:14:21;;;;;;;0.63;0.10;;;27.90;99.90;;;;;;5017374;28;20465;-79
2022/06/29 09:16:59;;;;;;;0.43;0.10;;;28.00;99.90;;;;;;5013467;28;20457;-78
2022/06/29 09:19:41;;;;;;;1.20;0.10;;;28.10;99.90;;;;;;4996037;28;20068;-79
2022/06/29 09:22:07;;;;;;;0.93;0.10;;;28.70;99.90;;;;;;5016123;28;20033;-79
2022/06/29 09:24:33;;;;;;;0.88;0.10;;;28.20;99.90;;;;;;4995121;28;20041;-80
2022/06/29 09:27:00;;;;;;;1.38;0.20;;;27.90;99.90;;;;;;5011056;28;20025;-78
2022/06/29 09:29:28;;;;;;;0.70;0.10;;;27.80;99.90;;;;;;5009602;28;20040;-78
2022/06/29 09:32:04;;;;;;;0.35;0.10;;;28.40;99.90;;;;;;4996944;28;20040;-78
2022/06/29 09:34:33;;;;;;;0.55;0.10;;;28.50;99.90;;;;;;5011107;28;20536;-78
2022/06/29 09:37:00;;;;;;;0.85;0.10;;;28.30;99.90;;;;;;5013947;28;20059;-82
2022/06/29 09:39:50;;;;;;;1.35;0.10;;;28.60;99.90;;;;;;5014755;28;20389;-79
2022/06/29 09:42:24;;;;;;;0.47;0.10;;;28.50;99.90;;;;;;5009527;28;20378;-79
2022/06/29 09:44:50;;;;;;;0.50;0.03;;;29.20;99.90;;;;;;5029577;28;20045;-79
2022/06/29 09:47:19;;;;;;;0.30;0.10;;;29.20;99.90;;;;;;5013599;28;20033;-79
2022/06/29 09:49:48;;;;;;;0.75;0.03;;;29.50;99.90;;;;;;5026303;28;20041;-79
2022/06/29 09:52:15;;;;;;;1.15;0.08;;;29.60;99.90;;;;;;5010330;28;20037;-79
2022/06/29 09:54:59;;;;;;;0.30;0.10;;;29.60;99.90;;;;;;5027222;28;20034;-79
2022/06/29 09:57:30;;;;;;;1.30;0.10;;;29.80;99.90;;;;;;5027424;28;20033;-79
2022/06/29 10:02:48;;;;;;;1.55;0.10;;;29.00;99.90;;;;;;5027989;28;20033;-79
2022/06/29 10:05:16;;;;;;;0.43;0.10;;;29.00;99.90;;;;;;4995785;28;20056;-80
2022/06/29 10:07:47;;;;;;;0.30;0.10;;;28.50;99.90;;;;;;4994904;28;20033;-79
2022/06/29 10:10:24;;;;;;;0.50;0.10;;;28.60;99.90;;;;;;5010380;28;20052;-79
2022/06/29 10:16:00;;;;;;;1.27;0.10;;;28.50;99.90;;;;;;5026847;28;20041;-80
2022/06/29 10:18:52;;;;;;;1.65;0.10;;;28.70;99.90;;;;;;4994650;28;20683;-79
2022/06/29 10:21:22;;;;;;;1.65;0.17;;;28.00;99.90;;;;;;5012506;28;20537;-80
2022/06/29 10:24:00;;;;;;;0.15;0.00;;;28.20;99.90;;;;;;5011669;28;20033;-80
2022/06/29 10:26:34;;;;;;;0.30;0.03;;;28.00;99.90;;;;;;5029191;28;20044;-79
2022/06/29 10:29:06;;;;;;;0.43;0.10;;;27.90;99.90;;;;;;5031852;28;20071;-80
2022/06/29 10:31:50;;;;;;;0.38;0.10;;;27.90;99.90;;;;;;5034986;28;20042;-79
2022/06/29 10:34:31;;;;;;;0.40;0.10;;;28.10;99.90;;;;;;5018998;28;20140;-79
2022/06/29 10:37:04;;;;;;;0.75;0.10;;;27.90;99.90;;;;;;5014136;28;20064;-79
2022/06/29 10:39:45;;;;;;;0.40;0.10;;;27.80;99.90;;;;;;5030273;28;20033;-80
2022/06/29 10:45:09;;;;;;;0.30;0.10;;;27.60;99.90;;;;;;5028960;28;20041;-79
2022/06/29 10:47:35;;;;;;;0.85;0.10;;;27.60;99.90;;;;;;5012204;28;20033;-78
2022/06/29 10:50:18;;;;;;;0.50;0.10;;;27.60;99.90;;;;;;5029346;28;20039;-79
2022/06/29 10:52:46;;;;;;;0.28;0.10;;;27.60;99.90;;;;;;5012210;28;20033;-80
2022/06/29 10:55:12;;;;;;;0.20;0.00;;;27.70;99.90;;;;;;5030289;28;20037;-79
2022/06/29 10:57:42;;;;;;;0.52;0.10;;;28.20;99.90;;;;;;4997969;28;20183;-80
2022/06/29 11:00:13;;;;;;;0.15;0.00;;;28.60;99.90;;;;;;5016665;28;20575;-80
2022/06/29 11:02:42;;;;;;;1.05;0.10;;;28.60;99.90;;;;;;5011945;28;20719;-79
2022/06/29 11:05:08;;;;;;;0.43;0.10;;;28.10;99.90;;;;;;5027335;28;20064;-80
2022/06/29 11:13:10;;;;;;;;;;;29.00;99.90;;;;;;4962645;28;20046;-79
2022/06/29 11:15:45;;;;;;;0.80;0.10;;;29.40;99.90;;;;;;4936545;28;19924;-79
2022/06/29 11:18:32;;;;;;;1.08;0.10;;;29.70;99.90;;;;;;4950383;28;20050;-79
2022/06/29 11:21:03;;;;;;;0.40;0.10;;;29.90;99.90;;;;;;4964440;28;20043;-79
2022/06/29 11:23:31;;;;;;;0.38;0.10;;;30.30;99.90;;;;;;4949206;28;20149;-79
2022/06/29 11:25:58;;;;;;;1.13;0.10;;;30.40;99.90;;;;;;4937748;28;20052;-79
2022/06/29 11:28:27;;;;;;;0.43;0.10;;;30.40;99.90;;;;;;4965873;28;20033;-78
2022/06/29 11:31:00;;;;;;;0.43;0.10;;;30.50;99.90;;;;;;4981679;28;20053;-79
2022/06/29 11:33:28;;;;;;;0.70;0.10;;;30.10;99.90;;;;;;4920583;28;20042;-79
2022/06/29 11:35:55;;;;;;;0.30;0.10;;;29.90;99.90;;;;;;4978991;28;20044;-79
2022/06/29 11:38:28;;;;;;;0.68;0.00;;;30.00;99.90;;;;;;4979720;28;20042;-79
2022/06/29 11:40:54;;;;;;;0.43;0.10;;;30.00;99.90;;;;;;4934401;28;20073;-79
2022/06/29 11:43:21;;;;;;;0.70;0.00;;;30.30;99.90;;;;;;4946181;28;20046;-80
2022/06/29 11:45:51;;;;;;;0.63;0.10;;;30.50;99.90;;;;;;4960787;28;20525;-79
2022/06/29 11:48:25;;;;;;;0.35;0.10;;;30.00;99.90;;;;;;4946164;28;20031;-80
2022/06/29 11:50:59;;;;;;;0.40;0.10;;;30.30;99.90;;;;;;5013027;28;20068;-79
2022/06/29 11:53:46;;;;;;;0.82;0.00;;;30.70;99.90;;;;;;5031301;28;20043;-79
2022/06/29 11:56:18;;;;;;;0.10;0.00;;;30.60;99.90;;;;;;5014635;28;20148;-79
2022/06/29 11:58:50;;;;;;;0.43;0.00;;;30.50;99.90;;;;;;4998920;28;20029;-79
2022/06/29 12:01:18;;;;;;;0.52;0.10;;;30.60;99.90;;;;;;4994840;28;20036;-82
2022/06/29 12:04:01;;;;;;;1.52;0.10;;;30.40;99.90;;;;;;5028418;28;20025;-81
2022/06/29 12:06:29;;;;;;;0.30;0.10;;;29.60;99.90;;;;;;5028966;28;20087;-81
2022/06/29 12:08:56;;;;;;;1.67;0.00;;;29.50;99.90;;;;;;4997689;28;20024;-80
2022/06/29 12:11:23;;;;;;;0.30;0.03;;;29.20;99.90;;;;;;4995833;28;20064;-79
2022/06/29 12:13:49;;;;;;;0.40;0.00;;;29.20;99.90;;;;;;5011579;28;20040;-79
2022/06/29 12:16:16;;;;;;;0.40;0.10;;;29.20;99.90;;;;;;5010404;28;20044;-79
2022/06/29 12:18:41;;;;;;;0.30;0.10;;;29.70;99.90;;;;;;5028555;28;20029;-80
2022/06/29 12:21:08;;;;;;;0.30;0.10;;;30.10;99.90;;;;;;5013955;28;20205;-80
2022/06/29 12:23:34;;;;;;;0.30;0.10;;;30.20;99.90;;;;;;5032324;28;20033;-79
2022/06/29 12:26:00;;;;;;;0.32;0.10;;;29.60;99.90;;;;;;5030009;28;20029;-79
2022/06/29 12:28:26;;;;;;;1.45;0.10;;;30.20;99.90;;;;;;5014030;28;20059;-80
2022/06/29 12:30:52;;;;;;;0.30;0.10;;;29.70;99.90;;;;;;5030162;28;20025;-79
2022/06/29 12:33:19;;;;;;;0.30;0.00;;;30.10;99.90;;;;;;5031705;28;20062;-80
2022/06/29 12:35:44;;;;;;;1.20;0.10;;;30.70;99.90;;;;;;5030218;28;20477;-80
2022/06/29 12:38:10;;;;;;;0.65;0.10;;;30.70;99.90;;;;;;5027440;28;20039;-80
2022/06/29 12:40:36;;;;;;;0.45;0.10;;;30.40;99.90;;;;;;5017725;28;20040;-79
2022/06/29 12:43:02;;;;;;;0.70;0.10;;;30.20;99.90;;;;;;5011737;28;20021;-79
2022/06/29 12:45:28;;;;;;;0.32;0.10;;;30.40;99.90;;;;;;4993910;28;20167;-80
2022/06/29 12:47:54;;;;;;;0.60;0.10;;;30.40;99.90;;;;;;5010225;28;20044;-80
2022/06/29 12:50:20;;;;;;;0.22;0.00;;;30.10;99.90;;;;;;5010844;28;20033;-80
2022/06/29 12:52:50;;;;;;;0.10;0.00;;;30.90;99.90;;;;;;5016264;28;20178;-78
2022/06/29 12:55:20;;;;;;;0.68;0.10;;;30.00;99.50;;;;;;5010790;28;20044;-79
2022/06/29 12:57:46;;;;;;;0.30;0.10;;;29.50;99.90;;;;;;5012810;28;20036;-80
2022/06/29 13:00:13;;;;;;;0.25;0.00;;;30.40;99.90;;;;;;4992685;28;20504;-79
2022/06/29 13:02:39;;;;;;;0.20;0.00;;;30.60;99.90;;;;;;4993874;28;20143;-80
2022/06/29 13:05:07;;;;;;;0.63;0.10;;;30.60;99.90;;;;;;5027477;28;20025;-80
2022/06/29 13:07:37;;;;;;;0.30;0.00;;;30.10;99.90;;;;;;5011266;28;20550;-80
2022/06/29 13:10:05;;;;;;;0.70;0.10;;;30.40;99.90;;;;;;4999460;28;20041;-80
2022/06/29 13:12:30;;;;;;;0.43;0.10;;;30.70;99.90;;;;;;5016976;28;20079;-81
2022/06/29 13:14:56;;;;;;;0.20;0.00;;;29.80;99.90;;;;;;5026079;28;20074;-81